Time;durP1;ratioP1;P1;durP2;ratioP2;P2;SDS_P1;SDS_P2;PMS_P1;PMS_P2;Temp;Humidity;BMP_temperature;BMP_pressure;BME280_temperature;BME280_humidity;BME280_pressure;Samples;Min_cycle;Max_cycle;Signal;HPM_P1;HPM_P2
2021/05/23 00:00:15;;;;;;;;;;;;;;;4.73;84.23;95967.34;3592964;39;19950;-53
2021/05/23 00:02:42;;;;;;;;;;;;;;;4.76;84.49;95975.53;3604052;39;19950;-53
2021/05/23 00:05:12;;;;;;;;;;;;;;;4.76;83.65;95964.25;3603979;39;19948;-53
2021/05/23 00:07:43;;;;;;;;;;;;;;;4.73;83.61;95975.97;3600498;39;19949;-52
2021/05/23 00:10:11;;;;;;;;;;;;;;;4.71;83.03;95962.31;3591156;39;19969;-52
2021/05/23 00:12:38;;;;;;;;;;;;;;;4.67;83.90;95973.41;3593866;39;19954;-52
2021/05/23 00:15:06;;;;;;;;;;;;;;;4.64;84.14;95976.44;3605901;39;19972;-54
2021/05/23 00:17:34;;;;;;;;;;;;;;;4.60;84.40;95976.91;3604134;39;19940;-53
2021/05/23 00:20:02;;;;;;;;;;;;;;;4.54;83.61;95988.19;3603399;39;20303;-53
2021/05/23 00:22:30;;;;;;;;;;;;;;;4.36;84.19;95991.56;3604807;39;19942;-52
2021/05/23 00:24:58;;;;;;;;;;;;;;;4.31;84.37;95987.00;3604091;39;19936;-53
2021/05/23 00:27:26;;;;;;;;;;;;;;;4.33;84.80;95989.38;3600816;39;19973;-53
2021/05/23 00:29:54;;;;;;;;;;;;;;;4.36;84.61;95986.34;3593517;39;19950;-53
2021/05/23 00:32:21;;;;;;;;;;;;;;;4.35;84.35;95989.19;3584982;39;20407;-52
2021/05/23 00:34:49;;;;;;;;;;;;;;;4.28;84.32;95981.41;3593837;39;20301;-53
2021/05/23 00:37:17;;;;;;;;;;;;;;;4.27;84.40;95987.63;3603474;39;19936;-53
2021/05/23 00:39:47;;;;;;;;;;;;;;;4.23;84.88;95982.03;3602926;39;19963;-53
2021/05/23 00:42:14;;;;;;;;;;;;;;;4.25;85.03;95990.44;3583829;39;19944;-53
2021/05/23 00:44:42;;;;;;;;;;;;;;;4.25;85.12;95980.00;3594254;39;20190;-53
2021/05/23 00:47:10;;;;;;;;;;;;;;;4.25;84.26;95977.38;3594862;39;19950;-53
2021/05/23 00:49:37;;;;;;;;;;;;;;;4.25;85.10;95966.94;3603834;39;19936;-52
2021/05/23 00:52:05;;;;;;;;;;;;;;;4.25;84.23;95972.16;3603600;39;19936;-53
2021/05/23 00:54:33;;;;;;;;;;;;;;;4.19;83.89;95980.06;3603457;39;19947;-53
2021/05/23 00:57:02;;;;;;;;;;;;;;;4.18;84.45;95981.88;3583974;39;19940;-53
2021/05/23 00:59:30;;;;;;;;;;;;;;;4.14;83.98;95991.13;3601896;39;19970;-53
2021/05/23 01:01:57;;;;;;;;;;;;;;;4.11;84.47;96000.19;3590897;39;19939;-53
2021/05/23 01:04:25;;;;;;;;;;;;;;;4.12;84.54;96006.22;3583905;40;19968;-52
2021/05/23 01:06:53;;;;;;;;;;;;;;;4.11;84.76;96000.19;3588619;39;19942;-52
2021/05/23 01:09:21;;;;;;;;;;;;;;;4.13;85.02;96002.59;3597745;39;19937;-52
2021/05/23 01:11:49;;;;;;;;;;;;;;;4.14;84.98;96004.19;3590303;39;20308;-52
2021/05/23 01:14:20;;;;;;;;;;;;;;;4.17;85.30;96003.78;3581964;40;19952;-54
2021/05/23 01:16:50;;;;;;;;;;;;;;;4.18;85.61;96005.38;3582671;40;19937;-53
2021/05/23 01:19:40;;;;;;;;;;;;;;;4.24;85.49;96009.75;3579463;39;19944;-54
2021/05/23 01:22:10;;;;;;;;;;;;;;;4.31;85.85;96007.06;3582593;40;19948;-53
2021/05/23 01:24:40;;;;;;;;;;;;;;;4.36;85.29;96007.25;3583399;40;19937;-53
2021/05/23 01:27:12;;;;;;;;;;;;;;;4.39;85.60;96000.78;3587834;39;19950;-53
2021/05/23 01:29:40;;;;;;;;;;;;;;;4.40;85.46;95999.78;3582606;40;19943;-53
2021/05/23 01:32:08;;;;;;;;;;;;;;;4.39;85.57;95996.38;3582149;40;19937;-54
2021/05/23 01:34:35;;;;;;;;;;;;;;;4.39;85.16;96006.00;3583827;40;20322;-56
2021/05/23 01:37:06;;;;;;;;;;;;;;;4.40;85.54;96005.00;3577322;40;19958;-54
2021/05/23 01:39:33;;;;;;;;;;;;;;;4.43;85.76;96004.56;3582690;40;20252;-52
2021/05/23 01:42:01;;;;;;;;;;;;;;;4.41;85.41;95999.56;3579382;40;20567;-52
2021/05/23 01:44:29;;;;;;;;;;;;;;;4.41;85.85;95998.75;3587305;39;19937;-52
2021/05/23 01:46:56;;;;;;;;;;;;;;;4.43;85.85;96004.56;3582977;40;19941;-53
2021/05/23 01:49:24;;;;;;;;;;;;;;;4.46;85.75;96002.31;3590737;39;19944;-54
2021/05/23 01:51:51;;;;;;;;;;;;;;;4.47;85.27;96000.53;3585418;40;19950;-53
2021/05/23 01:54:19;;;;;;;;;;;;;;;4.50;84.94;96007.13;3601091;39;19936;-53
2021/05/23 01:56:46;;;;;;;;;;;;;;;4.54;85.57;96008.31;3584430;40;19936;-53
2021/05/23 01:59:14;;;;;;;;;;;;;;;4.56;85.25;96003.66;3583994;40;20274;-54
2021/05/23 02:01:41;;;;;;;;;;;;;;;4.64;85.60;95997.34;3582786;40;19940;-53
2021/05/23 02:04:09;;;;;;;;;;;;;;;4.67;84.70;95995.13;3585835;39;19939;-54
2021/05/23 02:06:38;;;;;;;;;;;;;;;4.72;85.20;95999.69;3594719;39;21254;-53
2021/05/23 02:09:06;;;;;;;;;;;;;;;4.76;84.28;96001.66;3592588;39;19944;-55
2021/05/23 02:11:33;;;;;;;;;;;;;;;4.80;84.74;96004.63;3594197;39;19940;-53
2021/05/23 02:14:02;;;;;;;;;;;;;;;4.82;84.37;96004.41;3595189;39;19948;-54
2021/05/23 02:16:31;;;;;;;;;;;;;;;4.85;84.20;96014.44;3591591;39;20200;-53
2021/05/23 02:18:59;;;;;;;;;;;;;;;4.88;85.13;96014.00;3593683;39;19944;-53
2021/05/23 02:21:26;;;;;;;;;;;;;;;4.91;85.08;96005.75;3597417;39;19940;-53
2021/05/23 02:23:55;;;;;;;;;;;;;;;4.99;84.80;96007.25;3593498;39;20204;-54
2021/05/23 02:26:22;;;;;;;;;;;;;;;5.01;84.59;96013.88;3593289;39;19990;-53
2021/05/23 02:28:50;;;;;;;;;;;;;;;5.08;84.03;96014.59;3591350;39;19948;-53
2021/05/23 02:31:19;;;;;;;;;;;;;;;5.08;84.67;96014.59;3593252;39;19943;-56
2021/05/23 02:33:46;;;;;;;;;;;;;;;5.07;84.91;96015.59;3586130;39;19940;-55
2021/05/23 02:36:14;;;;;;;;;;;;;;;5.12;84.59;96024.63;3592351;39;20598;-53
2021/05/23 02:38:41;;;;;;;;;;;;;;;5.14;84.87;96027.81;3594222;39;19974;-53
2021/05/23 02:41:09;;;;;;;;;;;;;;;5.19;83.97;96026.16;3594757;39;20282;-53
2021/05/23 02:43:37;;;;;;;;;;;;;;;5.23;83.34;96031.75;3596281;39;19942;-53
2021/05/23 02:46:05;;;;;;;;;;;;;;;5.21;84.16;96034.59;3584378;39;19936;-53
2021/05/23 02:48:32;;;;;;;;;;;;;;;5.28;83.39;96038.94;3594298;39;19948;-53
2021/05/23 02:51:02;;;;;;;;;;;;;;;5.31;83.75;96033.28;3593449;39;19948;-53
2021/05/23 02:53:30;;;;;;;;;;;;;;;5.35;82.86;96035.22;3592881;39;19944;-53
2021/05/23 02:55:58;;;;;;;;;;;;;;;5.38;83.57;96039.22;3591267;39;19948;-54
2021/05/23 02:58:26;;;;;;;;;;;;;;;5.42;82.89;96037.75;3593859;39;19943;-53
2021/05/23 03:00:53;;;;;;;;;;;;;;;5.47;83.04;96042.34;3594239;39;19942;-54
2021/05/23 03:03:21;;;;;;;;;;;;;;;5.44;83.34;96042.75;3593237;39;19936;-53
2021/05/23 03:05:48;;;;;;;;;;;;;;;5.44;84.28;96038.34;3594520;39;19942;-53
2021/05/23 03:08:16;;;;;;;;;;;;;;;5.47;83.92;96043.16;3592865;39;19958;-54
2021/05/23 03:10:51;;;;;;;;;;;;;;;5.48;83.97;96036.88;3593606;39;19944;-53
2021/05/23 03:13:19;;;;;;;;;;;;;;;5.52;83.33;96040.66;3594332;39;19948;-53
2021/05/23 03:15:47;;;;;;;;;;;;;;;5.57;82.91;96040.00;3593849;39;20838;-53
2021/05/23 03:18:14;;;;;;;;;;;;;;;5.60;82.15;96036.94;3591151;39;19954;-54
2021/05/23 03:20:43;;;;;;;;;;;;;;;5.61;82.00;96035.09;3593298;39;19944;-53
2021/05/23 03:23:10;;;;;;;;;;;;;;;5.64;82.52;96032.06;3593267;39;19959;-53
2021/05/23 03:25:38;;;;;;;;;;;;;;;5.64;81.91;96030.25;3592744;39;19948;-52
2021/05/23 03:28:06;;;;;;;;;;;;;;;5.63;81.17;96031.28;3600922;39;19936;-54
2021/05/23 03:30:36;;;;;;;;;;;;;;;5.61;81.77;96032.50;3592433;39;19943;-53
2021/05/23 03:33:04;;;;;;;;;;;;;;;5.58;82.06;96031.13;3593906;39;20332;-53
2021/05/23 03:35:32;;;;;;;;;;;;;;;5.63;82.00;96026.03;3592996;39;19954;-53
2021/05/23 03:38:00;;;;;;;;;;;;;;;5.67;81.51;96021.16;3593689;39;20206;-52
2021/05/23 03:40:30;;;;;;;;;;;;;;;5.63;80.52;96028.66;3594590;39;19950;-53
2021/05/23 03:42:57;;;;;;;;;;;;;;;5.62;80.98;96019.22;3595153;39;20232;-52
2021/05/23 03:45:25;;;;;;;;;;;;;;;5.66;81.60;96012.50;3593856;39;19952;-53
2021/05/23 03:47:52;;;;;;;;;;;;;;;5.71;81.21;96011.84;3592384;39;19936;-53
2021/05/23 03:50:22;;;;;;;;;;;;;;;5.78;81.19;96019.63;3593043;39;20422;-53
2021/05/23 03:52:51;;;;;;;;;;;;;;;6.13;80.22;96038.06;3602181;39;19936;-52
2021/05/23 03:55:22;;;;;;;;;;;;;;;6.42;80.71;96040.88;3594639;39;19944;-53
2021/05/23 03:57:49;;;;;;;;;;;;;;;6.52;79.47;96034.25;3592854;39;19950;-53
2021/05/23 04:00:17;;;;;;;;;;;;;;;6.64;78.23;96029.03;3591973;39;19936;-58
2021/05/23 04:02:48;;;;;;;;;;;;;;;6.80;77.68;96027.56;3591181;39;19940;-53
2021/05/23 04:05:16;;;;;;;;;;;;;;;6.89;77.91;96016.47;3594638;39;20186;-52
2021/05/23 04:07:44;;;;;;;;;;;;;;;7.00;76.60;96008.84;3592368;39;20285;-53
2021/05/23 04:10:15;;;;;;;;;;;;;;;7.03;76.54;96016.25;3592869;39;20266;-52
2021/05/23 04:12:45;;;;;;;;;;;;;;;7.00;76.44;96000.97;3594711;39;19944;-57
2021/05/23 04:15:13;;;;;;;;;;;;;;;7.03;76.83;96003.94;3591324;39;19944;-53
2021/05/23 04:17:41;;;;;;;;;;;;;;;7.01;76.49;96005.19;3592451;39;19936;-57
2021/05/23 04:20:10;;;;;;;;;;;;;;;7.11;76.28;96002.78;3593247;39;19942;-54
2021/05/23 04:22:38;;;;;;;;;;;;;;;7.16;75.83;96000.25;3594668;39;19944;-54
2021/05/23 04:25:12;;;;;;;;;;;;;;;7.23;75.52;96002.75;3594354;39;20274;-53
2021/05/23 04:27:40;;;;;;;;;;;;;;;7.23;75.72;96008.00;3598618;39;21037;-53
2021/05/23 04:30:09;;;;;;;;;;;;;;;7.29;74.86;96014.13;3594778;39;20457;-53
2021/05/23 04:32:37;;;;;;;;;;;;;;;7.34;74.35;96022.13;3594050;39;19944;-53
2021/05/23 04:35:05;;;;;;;;;;;;;;;7.40;74.90;96029.06;3591894;39;19944;-53
2021/05/23 04:37:33;;;;;;;;;;;;;;;7.47;74.00;96023.69;3593093;39;19962;-53
2021/05/23 04:40:01;;;;;;;;;;;;;;;7.50;73.36;96021.41;3591589;39;20483;-52
2021/05/23 04:42:28;;;;;;;;;;;;;;;7.51;74.12;96014.31;3594221;39;20346;-53
2021/05/23 04:45:16;;;;;;;;;;;;;;;7.45;74.40;96017.84;3590235;39;19954;-53
2021/05/23 04:47:44;;;;;;;;;;;;;;;7.48;73.73;96025.28;3600365;39;19942;-54
2021/05/23 04:50:11;;;;;;;;;;;;;;;7.50;74.29;96024.03;3592067;39;19951;-53
2021/05/23 04:52:39;;;;;;;;;;;;;;;7.46;74.30;96022.91;3584986;39;19947;-52
2021/05/23 04:55:09;;;;;;;;;;;;;;;7.41;73.76;96033.28;3591043;39;19944;-52
2021/05/23 04:57:36;;;;;;;;;;;;;;;7.32;73.71;96026.81;3591889;39;20245;-55
2021/05/23 05:00:09;;;;;;;;;;;;;;;7.37;74.91;96029.53;3591992;39;19937;-54
2021/05/23 05:02:38;;;;;;;;;;;;;;;7.41;74.42;96027.25;3600537;39;19936;-60
2021/05/23 05:05:05;;;;;;;;;;;;;;;7.44;73.99;96032.81;3594217;39;19943;-54
2021/05/23 05:07:34;;;;;;;;;;;;;;;7.45;74.21;96033.59;3591369;39;19944;-53
2021/05/23 05:10:02;;;;;;;;;;;;;;;7.50;74.05;96029.28;3590692;39;19954;-52
2021/05/23 05:12:30;;;;;;;;;;;;;;;7.49;74.17;96029.50;3593037;39;19954;-53
2021/05/23 05:14:57;;;;;;;;;;;;;;;7.54;74.18;96027.78;3593261;39;20281;-52
2021/05/23 05:17:25;;;;;;;;;;;;;;;7.50;73.67;96033.72;3594018;39;20559;-53
2021/05/23 05:19:53;;;;;;;;;;;;;;;7.53;74.27;96030.63;3598760;39;19943;-54
2021/05/23 05:22:20;;;;;;;;;;;;;;;7.63;74.03;96024.78;3593266;39;19940;-54
2021/05/23 05:24:48;;;;;;;;;;;;;;;7.63;74.36;96030.81;3595528;39;19943;-54
2021/05/23 05:27:16;;;;;;;;;;;;;;;7.73;74.33;96030.22;3593326;39;19954;-53
2021/05/23 05:29:43;;;;;;;;;;;;;;;7.81;73.18;96021.19;3580920;39;19950;-53
2021/05/23 05:32:11;;;;;;;;;;;;;;;7.93;73.21;96027.19;3592826;39;20238;-53
2021/05/23 05:34:38;;;;;;;;;;;;;;;8.07;72.73;96017.16;3593538;39;20181;-52
2021/05/23 05:37:06;;;;;;;;;;;;;;;8.28;72.43;96012.25;3594333;39;19943;-54
2021/05/23 05:39:33;;;;;;;;;;;;;;;8.43;70.62;96020.38;3593171;39;19936;-53
2021/05/23 05:42:01;;;;;;;;;;;;;;;8.59;70.51;96021.44;3592537;39;20300;-53
2021/05/23 05:44:29;;;;;;;;;;;;;;;8.58;69.38;96019.06;3593754;39;19944;-51
2021/05/23 05:46:56;;;;;;;;;;;;;;;8.42;70.04;96016.16;3593194;39;19942;-52
2021/05/23 05:49:24;;;;;;;;;;;;;;;8.43;69.93;96023.00;3595523;39;19940;-53
2021/05/23 05:51:51;;;;;;;;;;;;;;;8.45;70.84;96020.94;3592923;39;20479;-53
2021/05/23 05:54:19;;;;;;;;;;;;;;;8.49;70.58;96020.50;3592557;39;20346;-53
2021/05/23 05:56:47;;;;;;;;;;;;;;;8.56;70.10;96029.78;3593357;39;19944;-52
2021/05/23 05:59:33;;;;;;;;;;;;;;;8.68;70.03;96023.66;3589828;39;20227;-53
2021/05/23 06:02:01;;;;;;;;;;;;;;;8.76;69.88;96025.91;3579230;39;19940;-53
2021/05/23 06:04:28;;;;;;;;;;;;;;;8.87;69.88;96019.75;3600053;39;19944;-52
2021/05/23 06:06:56;;;;;;;;;;;;;;;8.88;70.15;96023.16;3597832;39;20257;-54
2021/05/23 06:09:23;;;;;;;;;;;;;;;9.07;69.59;96021.84;3589425;39;19947;-54
2021/05/23 06:11:51;;;;;;;;;;;;;;;9.26;68.86;96021.56;3588930;39;21815;-52
2021/05/23 06:14:19;;;;;;;;;;;;;;;9.45;68.84;96027.31;3596760;39;19943;-52
2021/05/23 06:16:50;;;;;;;;;;;;;;;9.52;67.65;96030.56;3598768;39;19936;-53
2021/05/23 06:19:18;;;;;;;;;;;;;;;9.58;67.72;96022.72;3599283;39;20441;-53
2021/05/23 06:21:45;;;;;;;;;;;;;;;9.65;68.21;96033.88;3598460;39;19950;-54
2021/05/23 06:24:13;;;;;;;;;;;;;;;9.81;67.57;96027.72;3600323;39;20396;-52
2021/05/23 06:26:40;;;;;;;;;;;;;;;9.93;66.67;96022.31;3598371;39;20429;-53
2021/05/23 06:29:07;;;;;;;;;;;;;;;10.05;66.26;96030.03;3598549;39;19942;-54
2021/05/23 06:31:35;;;;;;;;;;;;;;;10.16;66.20;96037.00;3596774;39;19936;-53
2021/05/23 06:34:03;;;;;;;;;;;;;;;10.32;65.72;96026.59;3589404;39;19954;-53
2021/05/23 06:36:31;;;;;;;;;;;;;;;10.38;66.24;96036.19;3598244;39;19948;-53
2021/05/23 06:38:59;;;;;;;;;;;;;;;10.45;66.16;96028.84;3598802;39;19944;-54
2021/05/23 06:41:26;;;;;;;;;;;;;;;10.56;64.16;96021.81;3588714;39;19942;-54
2021/05/23 06:43:54;;;;;;;;;;;;;;;10.59;64.78;96018.66;3599469;39;19935;-54
2021/05/23 06:46:22;;;;;;;;;;;;;;;10.64;64.42;96012.66;3588930;39;19944;-53
2021/05/23 06:48:49;;;;;;;;;;;;;;;10.67;63.87;96011.34;3598382;39;20178;-53
2021/05/23 06:51:17;;;;;;;;;;;;;;;10.68;64.07;96016.34;3595959;39;20206;-53
2021/05/23 06:53:47;;;;;;;;;;;;;;;10.87;64.49;96018.59;3583157;39;20198;-54
2021/05/23 06:56:16;;;;;;;;;;;;;;;11.07;63.62;96018.72;3597202;39;19944;-53
2021/05/23 06:58:43;;;;;;;;;;;;;;;11.13;63.44;96013.47;3600036;39;19950;-53
2021/05/23 07:01:11;;;;;;;;;;;;;;;11.22;61.94;96009.28;3598757;39;19943;-54
2021/05/23 07:03:38;;;;;;;;;;;;;;;11.28;63.45;96000.31;3586936;39;19942;-58
2021/05/23 07:06:06;;;;;;;;;;;;;;;11.34;62.01;96001.13;3598600;39;19944;-53
2021/05/23 07:08:33;;;;;;;;;;;;;;;11.45;62.37;96001.97;3597347;39;20308;-57
2021/05/23 07:11:01;;;;;;;;;;;;;;;11.56;61.86;95997.53;3570780;39;19949;-54
2021/05/23 07:13:28;;;;;;;;;;;;;;;11.49;61.57;96000.41;3599570;39;20652;-53
2021/05/23 07:15:56;;;;;;;;;;;;;;;11.48;62.32;95999.59;3602231;39;20667;-53
2021/05/23 07:18:23;;;;;;;;;;;;;;;11.43;61.23;95993.50;3596202;39;20200;-54
2021/05/23 07:20:51;;;;;;;;;;;;;;;11.57;61.53;95994.63;3589367;39;19951;-53
2021/05/23 07:23:19;;;;;;;;;;;;;;;11.87;61.62;95987.03;3598797;39;19944;-53
2021/05/23 07:25:47;;;;;;;;;;;;;;;11.97;60.74;95993.13;3595265;39;21124;-54
2021/05/23 07:28:14;;;;;;;;;;;;;;;12.06;60.76;95990.00;3596392;39;19951;-54
2021/05/23 07:30:42;;;;;;;;;;;;;;;12.25;61.08;95998.97;3595159;39;19944;-54
2021/05/23 07:33:09;;;;;;;;;;;;;;;12.55;60.43;95988.69;3589092;39;19938;-54
2021/05/23 07:35:37;;;;;;;;;;;;;;;12.72;59.44;95989.19;3600822;39;20406;-54
2021/05/23 07:38:05;;;;;;;;;;;;;;;12.81;58.61;95986.78;3582599;39;19953;-54
2021/05/23 07:40:32;;;;;;;;;;;;;;;12.85;57.30;95981.75;3587242;39;19962;-54
2021/05/23 07:43:00;;;;;;;;;;;;;;;12.94;58.19;95988.06;3598914;39;19963;-54
2021/05/23 07:45:27;;;;;;;;;;;;;;;13.22;58.28;95983.22;3602455;39;19951;-55
2021/05/23 07:47:55;;;;;;;;;;;;;;;13.39;55.74;95980.25;3601300;39;19939;-54
2021/05/23 07:50:23;;;;;;;;;;;;;;;13.46;54.57;95978.13;3593219;39;20437;-54
2021/05/23 07:52:50;;;;;;;;;;;;;;;13.72;56.06;95974.53;3590188;39;19948;-54
2021/05/23 07:55:18;;;;;;;;;;;;;;;14.08;55.42;95984.94;3599750;39;20035;-54
2021/05/23 07:57:46;;;;;;;;;;;;;;;14.22;53.76;95977.13;3595614;39;19961;-54
2021/05/23 08:00:15;;;;;;;;;;;;;;;14.26;53.08;95978.16;3587643;39;20276;-54
2021/05/23 08:02:43;;;;;;;;;;;;;;;14.31;53.02;95972.81;3598507;39;20281;-52
2021/05/23 08:05:11;;;;;;;;;;;;;;;14.51;53.23;95971.06;3587465;39;19948;-53
2021/05/23 08:07:39;;;;;;;;;;;;;;;14.59;54.59;95971.25;3589804;39;19958;-53
2021/05/23 08:10:06;;;;;;;;;;;;;;;14.83;53.93;95970.53;3600743;39;20266;-54
2021/05/23 08:12:35;;;;;;;;;;;;;;;14.79;52.42;95969.50;3599830;39;20224;-54
2021/05/23 08:15:03;;;;;;;;;;;;;;;15.07;52.77;95981.16;3602128;39;20022;-53
2021/05/23 08:17:31;;;;;;;;;;;;;;;15.32;52.47;95967.84;3590064;39;19950;-53
2021/05/23 08:19:59;;;;;;;;;;;;;;;15.60;50.74;95965.38;3599908;39;19950;-54
2021/05/23 08:22:26;;;;;;;;;;;;;;;15.89;50.69;95967.94;3601426;39;19944;-54
2021/05/23 08:24:54;;;;;;;;;;;;;;;15.82;50.02;95962.94;3591240;39;20173;-54
2021/05/23 08:27:26;;;;;;;;;;;;;;;15.85;50.92;95955.50;3598169;39;19947;-54
2021/05/23 08:29:53;;;;;;;;;;;;;;;15.88;51.03;95970.91;3600919;39;19944;-54
2021/05/23 08:32:22;;;;;;;;;;;;;;;15.81;50.40;95961.34;3600745;39;19947;-55
2021/05/23 08:34:50;;;;;;;;;;;;;;;15.74;50.85;95965.44;3598260;39;20257;-54
2021/05/23 08:37:18;;;;;;;;;;;;;;;15.65;50.77;95963.44;3593001;39;19950;-54
2021/05/23 08:39:48;;;;;;;;;;;;;;;15.59;52.07;95963.81;3596025;39;20186;-54
2021/05/23 08:42:16;;;;;;;;;;;;;;;15.62;50.16;95965.91;3595740;39;19947;-53
2021/05/23 08:44:43;;;;;;;;;;;;;;;15.76;50.95;95963.31;3601405;39;19936;-53
2021/05/23 08:47:13;;;;;;;;;;;;;;;15.87;50.41;95966.66;3593381;39;19950;-53
2021/05/23 08:49:41;;;;;;;;;;;;;;;15.90;50.39;95961.53;3594866;39;19936;-54
2021/05/23 08:52:08;;;;;;;;;;;;;;;16.04;50.57;95969.56;3606944;39;19965;-54
2021/05/23 08:54:41;;;;;;;;;;;;;;;16.16;49.30;95973.66;3604195;39;19943;-59
2021/05/23 08:57:09;;;;;;;;;;;;;;;16.14;49.48;95973.94;3604929;39;20292;-53
2021/05/23 08:59:37;;;;;;;;;;;;;;;16.03;49.40;95975.19;3596180;39;19944;-53
2021/05/23 09:02:09;;;;;;;;;;;;;;;16.11;50.55;95963.88;3589896;39;19939;-54
2021/05/23 09:04:45;;;;;;;;;;;;;;;16.33;49.17;95973.13;3590206;39;19950;-55
2021/05/23 09:07:13;;;;;;;;;;;;;;;16.42;48.77;95971.41;3597488;39;19948;-54
2021/05/23 09:09:41;;;;;;;;;;;;;;;16.36;48.48;95975.22;3597540;39;19947;-54
2021/05/23 09:12:10;;;;;;;;;;;;;;;16.58;49.79;95978.03;3578487;39;20517;-54
2021/05/23 09:14:39;;;;;;;;;;;;;;;16.81;48.45;95975.50;3598023;39;19943;-53
2021/05/23 09:17:17;;;;;;;;;;;;;;;16.98;48.45;95974.16;3597868;39;19950;-54
2021/05/23 09:19:45;;;;;;;;;;;;;;;17.13;47.52;95973.09;3592557;39;19936;-54
2021/05/23 09:22:14;;;;;;;;;;;;;;;17.14;48.79;95978.13;3592144;39;20605;-54
2021/05/23 09:24:49;;;;;;;;;;;;;;;17.24;47.53;95977.13;3594099;39;19946;-54
2021/05/23 09:27:17;;;;;;;;;;;;;;;17.27;47.03;95965.09;3596331;39;19958;-53
2021/05/23 09:29:45;;;;;;;;;;;;;;;17.24;46.09;95971.78;3590080;39;19950;-64
2021/05/23 09:32:17;;;;;;;;;;;;;;;17.30;46.04;95972.47;3600836;39;19935;-54
2021/05/23 09:34:49;;;;;;;;;;;;;;;17.28;46.50;95975.47;3600382;39;19981;-55
2021/05/23 09:37:17;;;;;;;;;;;;;;;17.32;46.09;95973.78;3603046;39;20306;-55
2021/05/23 09:39:45;;;;;;;;;;;;;;;17.36;46.26;95976.63;3591340;39;19942;-53
2021/05/23 09:42:14;;;;;;;;;;;;;;;17.39;45.92;95977.91;3602426;39;19940;-53
2021/05/23 09:44:42;;;;;;;;;;;;;;;17.41;47.03;95976.56;3590078;39;19942;-54
2021/05/23 09:47:11;;;;;;;;;;;;;;;17.45;47.07;95977.50;3602307;39;19954;-53
2021/05/23 09:49:50;;;;;;;;;;;;;;;17.43;47.23;95979.69;3585792;39;19965;-54
2021/05/23 09:52:29;;;;;;;;;;;;;;;17.50;47.30;95981.94;3600742;39;19940;-54
2021/05/23 09:54:59;;;;;;;;;;;;;;;17.45;47.89;95976.72;3601149;39;19940;-54
2021/05/23 09:57:28;;;;;;;;;;;;;;;17.46;50.03;95978.31;3591112;39;19977;-56
2021/05/23 09:59:59;;;;;;;;;;;;;;;17.56;49.01;95975.44;3600393;39;20251;-54
2021/05/23 10:02:27;;;;;;;;;;;;;;;17.67;48.87;95978.66;3601339;39;20188;-54
2021/05/23 10:05:12;;;;;;;;;;;;;;;17.74;48.08;95971.06;3604100;39;19951;-54
2021/05/23 10:07:40;;;;;;;;;;;;;;;17.76;48.64;95982.22;3601191;39;19940;-54
2021/05/23 10:10:08;;;;;;;;;;;;;;;17.76;48.01;95976.88;3598306;39;20342;-55
2021/05/23 10:12:35;;;;;;;;;;;;;;;17.89;47.26;95977.16;3590542;39;19944;-56
2021/05/23 10:15:05;;;;;;;;;;;;;;;18.01;44.53;95972.09;3601765;39;19947;-54
2021/05/23 10:17:52;;;;;;;;;;;;;;;18.19;45.96;95966.88;3601269;39;19940;-54
2021/05/23 10:20:21;;;;;;;;;;;;;;;18.43;44.14;95966.56;3594587;39;19946;-54
2021/05/23 10:22:49;;;;;;;;;;;;;;;18.67;43.52;95966.22;3593598;39;19944;-54
2021/05/23 10:25:16;;;;;;;;;;;;;;;18.75;42.88;95962.81;3598673;39;19962;-54
2021/05/23 10:27:46;;;;;;;;;;;;;;;18.90;42.76;95942.91;3599246;39;20265;-54
2021/05/23 10:30:14;;;;;;;;;;;;;;;19.01;42.38;95962.19;3603105;39;19948;-55
2021/05/23 10:32:43;;;;;;;;;;;;;;;19.08;41.75;95963.59;3591839;39;19932;-54
2021/05/23 10:35:13;;;;;;;;;;;;;;;19.12;42.03;95953.88;3590207;39;20283;-54
2021/05/23 10:37:42;;;;;;;;;;;;;;;19.12;41.58;95954.66;3595184;39;19958;-54
2021/05/23 10:40:16;;;;;;;;;;;;;;;19.15;41.51;95961.25;3596442;39;19956;-54
2021/05/23 10:42:48;;;;;;;;;;;;;;;19.16;41.70;95955.63;3587292;39;19971;-54
2021/05/23 10:45:29;;;;;;;;;;;;;;;19.15;39.66;95946.03;3589559;39;20198;-54
2021/05/23 10:47:57;;;;;;;;;;;;;;;19.21;40.53;95946.66;3600570;39;19944;-55
2021/05/23 10:50:34;;;;;;;;;;;;;;;19.13;40.44;95945.53;3592867;39;19936;-54
2021/05/23 10:53:03;;;;;;;;;;;;;;;19.16;39.83;95946.78;3590747;39;19936;-54
2021/05/23 10:55:31;;;;;;;;;;;;;;;19.04;41.07;95952.75;3594447;39;19935;-54
2021/05/23 10:57:59;;;;;;;;;;;;;;;18.87;41.21;95948.09;3598341;39;19943;-54
2021/05/23 11:00:32;;;;;;;;;;;;;;;18.81;42.16;95952.00;3598104;39;19942;-55
2021/05/23 11:03:19;;;;;;;;;;;;;;;18.73;40.34;95946.31;3603883;39;19938;-54
2021/05/23 11:05:47;;;;;;;;;;;;;;;18.60;41.81;95949.84;3604471;39;19942;-55
2021/05/23 11:08:15;;;;;;;;;;;;;;;18.49;41.62;95954.66;3604815;39;19950;-54
2021/05/23 11:10:46;;;;;;;;;;;;;;;18.44;43.17;95947.56;3596357;39;19936;-56
2021/05/23 11:13:26;;;;;;;;;;;;;;;18.40;42.44;95953.81;3604581;39;19944;-56
2021/05/23 11:15:54;;;;;;;;;;;;;;;18.27;42.78;95939.47;3592989;39;19948;-53
2021/05/23 11:18:22;;;;;;;;;;;;;;;18.18;42.19;95944.75;3605136;39;19936;-53
2021/05/23 11:20:56;;;;;;;;;;;;;;;18.11;43.05;95939.81;3604591;39;19935;-53
2021/05/23 11:23:25;;;;;;;;;;;;;;;18.19;43.17;95940.16;3596864;39;19943;-54
2021/05/23 11:26:05;;;;;;;;;;;;;;;18.26;42.11;95936.00;3604913;39;19936;-54
2021/05/23 11:28:33;;;;;;;;;;;;;;;18.28;42.57;95939.16;3603275;39;20086;-54
2021/05/23 11:31:01;;;;;;;;;;;;;;;18.21;43.52;95935.31;3596287;39;19942;-54
2021/05/23 11:33:28;;;;;;;;;;;;;;;18.36;43.40;95929.63;3593552;39;19966;-54
2021/05/23 11:35:56;;;;;;;;;;;;;;;18.51;42.83;95920.41;3604309;39;19939;-54
2021/05/23 11:38:33;;;;;;;;;;;;;;;18.59;42.94;95929.56;3594935;39;19936;-54
2021/05/23 11:41:01;;;;;;;;;;;;;;;18.54;43.97;95921.69;3594628;39;19942;-54
2021/05/23 11:43:29;;;;;;;;;;;;;;;18.40;44.02;95924.44;3596328;39;20269;-54
2021/05/23 11:45:58;;;;;;;;;;;;;;;18.10;44.40;95922.22;3585104;39;19942;-54
2021/05/23 11:48:29;;;;;;;;;;;;;;;17.85;46.41;95922.78;3606324;39;19975;-54
2021/05/23 11:50:57;;;;;;;;;;;;;;;17.67;46.13;95920.78;3604367;39;19942;-55
2021/05/23 11:53:34;;;;;;;;;;;;;;;17.25;47.66;95924.63;3605414;39;19940;-54
2021/05/23 11:56:02;;;;;;;;;;;;;;;17.06;48.71;95930.84;3603123;39;19936;-54
2021/05/23 11:58:30;;;;;;;;;;;;;;;16.78;49.49;95935.34;3596599;39;19936;-54
2021/05/23 12:01:14;;;;;;;;;;;;;;;16.40;50.24;95930.97;3604003;39;19954;-54
2021/05/23 12:03:42;;;;;;;;;;;;;;;16.09;51.85;95924.28;3596036;39;20304;-54
2021/05/23 12:06:16;;;;;;;;;;;;;;;15.77;51.99;95927.66;3604977;39;19972;-54
2021/05/23 12:08:44;;;;;;;;;;;;;;;15.50;53.30;95937.06;3604208;39;19947;-54
2021/05/23 12:11:11;;;;;;;;;;;;;;;15.30;54.28;95940.78;3592611;39;19946;-54
2021/05/23 12:13:39;;;;;;;;;;;;;;;15.15;55.56;95957.69;3599707;39;20001;-54
2021/05/23 12:16:08;;;;;;;;;;;;;;;14.97;55.64;95960.00;3603671;39;20208;-54
2021/05/23 12:18:36;;;;;;;;;;;;;;;14.81;58.06;95964.69;3595633;39;20282;-54
2021/05/23 12:21:05;;;;;;;;;;;;;;;14.67;58.39;95969.03;3595210;39;19942;-54
2021/05/23 12:23:33;;;;;;;;;;;;;;;14.38;60.64;95978.59;3594319;39;19943;-55
2021/05/23 12:26:05;;;;;;;;;;;;;;;14.12;61.42;95981.44;3595076;39;19935;-54
2021/05/23 12:28:36;;;;;;;;;;;;;;;13.75;62.28;95982.75;3595149;39;19944;-54
2021/05/23 12:31:05;;;;;;;;;;;;;;;13.51;65.02;95996.66;3602544;39;20278;-57
2021/05/23 12:33:34;;;;;;;;;;;;;;;13.29;68.71;95988.22;3594196;39;19961;-55
2021/05/23 12:36:09;;;;;;;;;;;;;;;13.13;69.69;96001.53;3594919;39;19936;-55
2021/05/23 12:38:38;;;;;;;;;;;;;;;12.88;71.64;96010.34;3605232;39;19972;-55
2021/05/23 12:41:06;;;;;;;;;;;;;;;12.66;70.38;96022.00;3593835;39;19936;-56
2021/05/23 12:43:35;;;;;;;;;;;;;;;12.43;69.42;96020.69;3604292;39;19950;-56
2021/05/23 12:46:07;;;;;;;;;;;;;;;12.25;70.07;96022.00;3594437;39;20346;-55
2021/05/23 12:48:36;;;;;;;;;;;;;;;12.00;74.54;96019.06;3605736;39;19936;-55
2021/05/23 12:51:30;;;;;;;;;;;;;;;11.87;76.58;96030.13;3585891;39;20308;-56
2021/05/23 12:53:57;;;;;;;;;;;;;;;11.67;74.26;96031.63;3602609;39;19935;-56
2021/05/23 12:56:29;;;;;;;;;;;;;;;11.67;77.78;96047.50;3595311;39;19950;-56
2021/05/23 12:59:01;;;;;;;;;;;;;;;11.69;77.43;96045.38;3603544;39;19936;-55
2021/05/23 13:01:37;;;;;;;;;;;;;;;11.69;78.18;96048.03;3594417;39;19942;-55